Terminal Aerodrome Forecast
Issued by NWS

Home | Current Version | Previous Version | Text Only | Print | Product List | Glossary On
Versions: 1 2 3 4 5 6 7 8 9 10 11 12 13 14 15 16 17 18 19 20 21 22 23 24 25 26 27 28 29 30 31 32 33
000
FTUS46 KLOX 231804 AAA
TAFLGB
TAF AMD
KLGB 231804Z 2318/2418 VRB06KT 6SM HZ SCT015
     FM232100 20008KT P6SM SCT150
     FM240000 30008KT P6SM SCT015
     FM240400 30006KT 5SM BR OVC008
     FM240900 VRB03KT P6SM OVC012=

USA.gov is the U.S. government's official web portal to all federal, state and local government web resources and services.